createdAt,value
2022-11-16T00:00:35.337Z,11.37
2022-11-16T00:03:03.380Z,12.17
2022-11-16T00:05:32.623Z,11.73
2022-11-16T00:08:00.436Z,12.60
2022-11-16T00:10:28.221Z,12.60
2022-11-16T00:12:56.071Z,14.27
2022-11-16T00:15:23.917Z,12.53
2022-11-16T00:17:51.762Z,13.10
2022-11-16T00:20:19.647Z,11.83
2022-11-16T00:22:48.870Z,11.97
2022-11-16T00:25:16.858Z,12.73
2022-11-16T00:27:44.687Z,11.77
2022-11-16T00:30:13.602Z,11.93
2022-11-16T00:32:41.623Z,11.77
2022-11-16T00:35:10.106Z,12.20
2022-11-16T00:37:37.973Z,12.83
2022-11-16T00:40:09.079Z,13.87
2022-11-16T00:42:36.936Z,13.27
2022-11-16T00:45:05.289Z,13.10
2022-11-16T00:47:32.998Z,13.87
2022-11-16T00:50:00.901Z,12.27
2022-11-16T00:52:28.840Z,13.17
2022-11-16T00:54:57.004Z,16.27
2022-11-16T00:57:26.370Z,12.50
2022-11-16T00:59:54.378Z,12.27
2022-11-16T01:02:22.328Z,14.20
2022-11-16T01:04:50.232Z,13.50
2022-11-16T01:07:18.194Z,14.30
2022-11-16T01:09:46.179Z,13.93
2022-11-16T01:12:13.327Z,14.53
2022-11-16T01:14:45.137Z,12.90
2022-11-16T01:17:12.987Z,11.80
2022-11-16T01:19:41.698Z,11.83
2022-11-16T01:22:09.872Z,14.20
2022-11-16T01:24:37.849Z,14.50
2022-11-16T01:27:05.775Z,13.83
2022-11-16T01:29:33.726Z,14.93
2022-11-16T01:32:03.052Z,11.83
2022-11-16T01:34:31.014Z,13.23
2022-11-16T01:36:58.949Z,13.70
2022-11-16T01:39:26.921Z,13.43
2022-11-16T01:41:54.894Z,12.67
2022-11-16T01:45:08.526Z,12.60
2022-11-16T01:47:37.725Z,13.83
2022-11-16T01:50:10.566Z,13.20
2022-11-16T01:52:43.892Z,13.53
2022-11-16T01:55:12.300Z,12.80
2022-11-16T01:57:44.758Z,13.47
2022-11-16T02:00:14.386Z,13.30
2022-11-16T02:02:43.863Z,11.43
2022-11-16T02:05:14.092Z,11.80
2022-11-16T02:08:20.870Z,15.23
2022-11-16T02:11:02.759Z,11.93
2022-11-16T02:13:41.577Z,11.57
2022-11-16T02:16:19.870Z,12.87
2022-11-16T02:18:56.972Z,13.70
2022-11-16T02:21:44.670Z,12.87
2022-11-16T02:24:40.086Z,13.90
2022-11-16T02:27:35.236Z,12.20
2022-11-16T02:30:06.160Z,11.47
2022-11-16T02:32:39.005Z,11.83
2022-11-16T02:35:13.000Z,14.47
2022-11-16T02:37:45.440Z,11.97
2022-11-16T02:40:16.320Z,14.87
2022-11-16T02:42:49.347Z,14.00
2022-11-16T02:45:23.228Z,14.73
2022-11-16T02:47:55.650Z,14.10
2022-11-16T02:50:24.410Z,13.50
2022-11-16T02:52:52.319Z,13.83
2022-11-16T02:55:20.318Z,13.50
2022-11-16T02:57:54.486Z,12.93
2022-11-16T03:00:26.277Z,14.03
2022-11-16T03:03:02.922Z,16.50
2022-11-16T03:05:36.036Z,12.50
2022-11-16T03:08:13.456Z,15.30
2022-11-16T03:11:00.142Z,13.60
2022-11-16T03:13:31.214Z,13.63
2022-11-16T03:16:04.017Z,13.97
2022-11-16T03:18:32.371Z,13.27
2022-11-16T03:21:10.759Z,13.47
2022-11-16T03:23:39.227Z,14.70
2022-11-16T03:26:11.070Z,13.47
2022-11-16T03:28:48.682Z,14.67
2022-11-16T03:31:23.772Z,13.23
2022-11-16T03:33:56.292Z,12.50
2022-11-16T03:36:28.642Z,14.97
2022-11-16T03:39:00.808Z,15.00
2022-11-16T03:41:30.918Z,15.23
2022-11-16T03:44:00.460Z,14.43
2022-11-16T03:46:30.346Z,13.63
2022-11-16T03:48:59.534Z,13.53
2022-11-16T03:51:27.719Z,13.80
2022-11-16T03:53:55.743Z,14.13
2022-11-16T03:56:23.776Z,13.80
2022-11-16T03:58:51.648Z,13.47
2022-11-16T04:01:19.701Z,15.10
2022-11-16T04:03:49.041Z,12.60
2022-11-16T04:06:34.675Z,14.00
2022-11-16T04:09:19.972Z,12.30
2022-11-16T04:12:05.563Z,13.17
2022-11-16T04:14:51.290Z,13.17
2022-11-16T04:17:38.486Z,11.90
2022-11-16T04:20:28.662Z,14.13
2022-11-16T04:23:18.684Z,13.70
2022-11-16T04:25:48.694Z,13.00
2022-11-16T04:28:17.534Z,12.43
2022-11-16T04:31:06.214Z,14.23
2022-11-16T04:33:52.480Z,15.73
2022-11-16T04:36:39.395Z,13.23
2022-11-16T04:39:07.375Z,12.90
2022-11-16T04:41:53.477Z,14.20
2022-11-16T04:44:25.903Z,12.87
2022-11-16T04:47:07.957Z,12.00
2022-11-16T04:49:36.267Z,14.47
2022-11-16T04:52:05.815Z,14.33
2022-11-16T04:54:33.789Z,14.77
2022-11-16T04:57:01.706Z,14.57
2022-11-16T04:59:29.727Z,16.73
2022-11-16T05:02:09.933Z,14.90
2022-11-16T05:04:38.164Z,13.57
2022-11-16T05:07:11.205Z,15.13
2022-11-16T05:09:42.823Z,15.27
2022-11-16T05:12:11.202Z,14.73
2022-11-16T05:14:39.193Z,16.27
2022-11-16T05:17:07.254Z,15.60
2022-11-16T05:19:53.220Z,15.80
2022-11-16T05:22:22.725Z,16.13
2022-11-16T05:24:51.761Z,14.90
2022-11-16T05:27:21.257Z,18.17
2022-11-16T05:29:50.094Z,16.63
2022-11-16T05:32:19.016Z,15.27
2022-11-16T05:34:47.245Z,19.57
2022-11-16T05:37:16.021Z,17.23
2022-11-16T05:39:45.334Z,18.10
2022-11-16T05:42:13.374Z,15.00
2022-11-16T05:44:41.523Z,14.70
2022-11-16T05:47:09.647Z,16.80
2022-11-16T05:49:37.886Z,17.20
2022-11-16T05:52:05.715Z,15.70
2022-11-16T05:54:33.664Z,14.97
2022-11-16T05:57:02.862Z,15.83
2022-11-16T05:59:30.948Z,18.23
2022-11-16T06:01:59.003Z,17.10
2022-11-16T06:04:27.004Z,16.93
2022-11-16T06:06:55.053Z,17.43
2022-11-16T06:09:23.008Z,18.73
2022-11-16T06:11:51.151Z,17.03
2022-11-16T06:14:20.444Z,14.67
2022-11-16T06:16:48.377Z,14.13
2022-11-16T06:19:16.277Z,17.83
2022-11-16T06:21:44.382Z,17.37
2022-11-16T06:24:12.316Z,17.30
2022-11-16T06:26:40.392Z,17.87
2022-11-16T06:29:08.375Z,16.63
2022-11-16T06:31:37.702Z,18.70
2022-11-16T06:34:05.929Z,16.87
2022-11-16T06:36:33.856Z,18.00
2022-11-16T06:39:02.026Z,16.50
2022-11-16T06:41:30.299Z,17.03
2022-11-16T06:43:58.143Z,17.03
2022-11-16T06:46:26.257Z,17.73
2022-11-16T06:48:56.979Z,17.63
2022-11-16T06:51:25.484Z,18.03
2022-11-16T06:53:53.347Z,16.47
2022-11-16T06:56:21.333Z,17.27
2022-11-16T06:58:53.260Z,16.37
2022-11-16T07:01:21.505Z,17.33
2022-11-16T07:03:49.439Z,16.57
2022-11-16T07:06:18.759Z,18.33
2022-11-16T07:08:46.665Z,16.20
2022-11-16T07:11:14.656Z,17.70
2022-11-16T07:13:42.478Z,16.57
2022-11-16T07:16:12.469Z,19.33
2022-11-16T07:18:42.391Z,15.43
2022-11-16T07:21:12.103Z,16.13
2022-11-16T07:23:41.536Z,15.83
2022-11-16T07:26:10.457Z,18.57
2022-11-16T07:28:42.064Z,18.53
2022-11-16T07:31:14.415Z,18.47
2022-11-16T07:33:42.897Z,18.30
2022-11-16T07:36:13.147Z,18.83
2022-11-16T07:38:42.993Z,17.10
2022-11-16T07:41:12.886Z,15.20
2022-11-16T07:43:40.939Z,16.03
2022-11-16T07:48:59.429Z,14.60
2022-11-16T07:51:27.613Z,16.40
2022-11-16T07:53:57.042Z,16.73
2022-11-16T07:56:25.536Z,17.20
2022-11-16T07:58:53.694Z,15.57
2022-11-16T08:01:21.732Z,17.50
2022-11-16T08:03:53.579Z,15.63
2022-11-16T08:06:24.542Z,18.07
2022-11-16T08:08:58.066Z,19.87
2022-11-16T08:11:28.101Z,16.73
2022-11-16T08:13:57.419Z,19.80
2022-11-16T08:16:25.526Z,16.23
2022-11-16T08:18:53.571Z,17.23
2022-11-16T08:21:21.583Z,18.00
2022-11-16T08:24:06.839Z,17.20
2022-11-16T08:26:36.576Z,17.63
2022-11-16T08:29:04.627Z,20.33
2022-11-16T08:31:32.595Z,18.30
2022-11-16T08:34:01.519Z,17.17
2022-11-16T08:36:29.562Z,17.90
2022-11-16T08:38:58.167Z,18.10
2022-11-16T08:41:25.898Z,17.63
2022-11-16T08:43:55.276Z,16.70
2022-11-16T08:46:23.302Z,16.20
2022-11-16T08:48:55.875Z,18.63
2022-11-16T08:51:24.598Z,19.30
2022-11-16T08:53:56.638Z,17.23
2022-11-16T08:56:26.329Z,19.17
2022-11-16T08:58:58.922Z,18.47
2022-11-16T09:01:29.362Z,16.53
2022-11-16T09:03:57.846Z,16.50
2022-11-16T09:06:27.178Z,16.30
2022-11-16T09:08:57.073Z,17.23
2022-11-16T09:11:26.874Z,17.57
2022-11-16T09:13:57.004Z,20.10
2022-11-16T09:16:25.582Z,16.23
2022-11-16T09:18:53.647Z,21.47
2022-11-16T09:21:23.608Z,18.50
2022-11-16T09:23:51.839Z,18.30
2022-11-16T09:26:22.914Z,20.23
2022-11-16T09:28:58.219Z,20.30
2022-11-16T09:31:27.545Z,19.20
2022-11-16T09:34:44.443Z,19.37
2022-11-16T09:37:12.499Z,21.07
2022-11-16T09:39:40.473Z,20.17
2022-11-16T09:42:22.823Z,19.23
2022-11-16T09:45:04.416Z,16.20
2022-11-16T09:47:49.084Z,21.93
2022-11-16T09:50:34.619Z,19.13
2022-11-16T09:53:15.894Z,19.27
2022-11-16T09:55:48.342Z,18.93
2022-11-16T09:58:23.376Z,21.27
2022-11-16T10:00:59.894Z,18.77
2022-11-16T10:03:30.136Z,19.03
2022-11-16T10:06:03.934Z,19.33
2022-11-16T10:08:44.025Z,19.83
2022-11-16T10:11:30.975Z,17.13
2022-11-16T10:14:06.795Z,20.90
2022-11-16T10:16:46.313Z,18.77
2022-11-16T10:19:25.188Z,17.53
2022-11-16T10:21:59.350Z,18.10
2022-11-16T10:24:38.164Z,20.77
2022-11-16T10:27:25.783Z,16.20
2022-11-16T10:30:03.161Z,16.80
2022-11-16T10:32:35.526Z,18.23
2022-11-16T10:35:09.327Z,17.80
2022-11-16T10:37:40.389Z,16.90
2022-11-16T10:40:19.751Z,16.97
2022-11-16T10:42:54.926Z,17.93
2022-11-16T10:45:27.393Z,18.73
2022-11-16T10:48:01.745Z,17.53
2022-11-16T10:50:38.560Z,15.63
2022-11-16T10:53:07.048Z,15.40
2022-11-16T10:55:35.153Z,15.93
2022-11-16T10:58:05.363Z,17.00
2022-11-16T11:00:44.001Z,17.13
2022-11-16T11:03:13.584Z,18.10
2022-11-16T11:05:52.595Z,15.87
2022-11-16T11:08:30.540Z,15.57
2022-11-16T11:11:23.544Z,18.80
2022-11-16T11:14:05.268Z,14.43
2022-11-16T11:16:33.441Z,14.57
2022-11-16T11:19:25.432Z,14.70
2022-11-16T11:21:58.443Z,15.87
2022-11-16T11:24:45.004Z,13.50
2022-11-16T11:27:14.108Z,13.80
2022-11-16T11:29:44.022Z,12.23
2022-11-16T11:32:22.397Z,11.50
2022-11-16T11:34:54.890Z,12.07
2022-11-16T11:37:28.683Z,13.03
2022-11-16T11:40:24.638Z,13.67
2022-11-16T11:42:56.297Z,10.77
2022-11-16T11:45:31.904Z,12.10
2022-11-16T11:48:02.898Z,10.90
2022-11-16T11:50:44.156Z,10.63
2022-11-16T11:53:22.075Z,12.47
2022-11-16T11:55:54.049Z,12.23
2022-11-16T11:58:22.837Z,9.97
2022-11-16T12:01:08.194Z,12.13
2022-11-16T12:03:53.905Z,12.07
2022-11-16T12:06:30.759Z,12.87
2022-11-16T12:09:09.287Z,13.33
2022-11-16T12:11:51.325Z,12.27
2022-11-16T12:14:33.383Z,12.07
2022-11-16T12:17:08.109Z,12.57
2022-11-16T12:19:59.622Z,13.47
2022-11-16T12:23:01.098Z,12.20
2022-11-16T12:25:41.641Z,11.97
2022-11-16T12:28:21.535Z,11.53
2022-11-16T12:31:00.551Z,12.37
2022-11-16T12:33:40.181Z,14.03
2022-11-16T12:36:16.954Z,12.40
2022-11-16T12:39:00.375Z,10.93
2022-11-16T12:42:01.005Z,11.13
2022-11-16T12:44:41.218Z,11.77
2022-11-16T12:47:17.941Z,11.17
2022-11-16T12:50:04.109Z,13.17
2022-11-16T12:52:50.445Z,12.77
2022-11-16T12:55:29.898Z,10.67
2022-11-16T12:58:15.122Z,10.13
2022-11-16T13:00:53.641Z,12.17
2022-11-16T13:03:27.355Z,12.27
2022-11-16T13:05:59.037Z,11.87
2022-11-16T13:08:53.458Z,11.80
2022-11-16T13:11:26.790Z,12.67
2022-11-16T13:13:59.540Z,11.73
2022-11-16T13:16:30.098Z,12.17
2022-11-16T13:18:59.395Z,11.13
2022-11-16T13:21:38.256Z,12.17
2022-11-16T13:24:47.941Z,12.40
2022-11-16T13:27:35.530Z,10.57
2022-11-16T13:30:15.034Z,11.83
2022-11-16T13:32:58.897Z,10.10
2022-11-16T13:35:27.771Z,11.90
2022-11-16T13:37:55.839Z,10.63
2022-11-16T13:40:27.248Z,10.90
2022-11-16T13:43:15.262Z,11.40
2022-11-16T13:45:51.198Z,12.83
2022-11-16T13:48:21.721Z,12.43
2022-11-16T13:50:53.330Z,12.03
2022-11-16T13:54:25.188Z,9.73
2022-11-16T13:56:27.198Z,10.43
2022-11-16T13:58:59.573Z,10.80
2022-11-16T14:01:58.537Z,11.00
2022-11-16T14:04:42.307Z,12.73
2022-11-16T14:07:30.642Z,13.00
2022-11-16T14:09:59.351Z,12.80
2022-11-16T14:12:58.114Z,9.63
2022-11-16T14:15:33.019Z,10.07
2022-11-16T14:18:32.840Z,11.93
2022-11-16T14:21:06.893Z,11.40
2022-11-16T14:24:02.753Z,11.27
2022-11-16T14:26:45.324Z,11.67
2022-11-16T14:29:43.464Z,11.27
2022-11-16T14:32:21.803Z,10.47
2022-11-16T14:34:52.845Z,11.37
2022-11-16T14:37:33.433Z,11.50
2022-11-16T14:40:05.775Z,10.60
2022-11-16T14:42:48.354Z,12.50
2022-11-16T14:45:27.294Z,11.20
2022-11-16T14:48:01.572Z,11.67
2022-11-16T14:50:30.324Z,12.63
2022-11-16T14:53:02.293Z,13.43
2022-11-16T14:55:30.367Z,11.10
2022-11-16T14:58:17.651Z,11.70
2022-11-16T15:00:54.864Z,13.00
2022-11-16T15:03:26.609Z,13.73
2022-11-16T15:05:58.407Z,10.47
2022-11-16T15:08:32.178Z,12.40
2022-11-16T15:11:01.017Z,12.30
2022-11-16T15:13:29.057Z,11.30
2022-11-16T15:16:11.217Z,13.93
2022-11-16T15:18:40.438Z,12.23
2022-11-16T15:21:23.261Z,14.23
2022-11-16T15:24:15.504Z,12.27
2022-11-16T15:26:40.251Z,11.30
2022-11-16T15:29:16.045Z,11.33
2022-11-16T15:31:44.465Z,10.17
2022-11-16T15:34:16.953Z,12.23
2022-11-16T15:36:45.288Z,12.87
2022-11-16T15:39:16.677Z,13.10
2022-11-16T15:41:46.075Z,12.17
2022-11-16T15:44:17.277Z,11.73
2022-11-16T15:46:48.146Z,10.87
2022-11-16T15:49:27.579Z,12.87
2022-11-16T15:51:55.656Z,10.53
2022-11-16T15:54:25.533Z,11.70
2022-11-16T15:56:56.009Z,11.93
2022-11-16T15:59:28.585Z,11.20
2022-11-16T16:01:57.382Z,12.03
2022-11-16T16:04:27.762Z,10.63
2022-11-16T16:06:56.815Z,11.13
2022-11-16T16:09:29.074Z,11.37
2022-11-16T16:12:12.021Z,9.33
2022-11-16T16:14:40.029Z,11.10
2022-11-16T16:17:09.438Z,11.33
2022-11-16T16:19:42.926Z,9.60
2022-11-16T16:22:16.320Z,11.40
2022-11-16T16:24:45.757Z,9.77
2022-11-16T16:27:16.234Z,9.57
2022-11-16T16:29:44.665Z,9.33
2022-11-16T16:32:23.613Z,9.60
2022-11-16T16:34:53.365Z,8.07
2022-11-16T16:37:21.615Z,9.30
2022-11-16T16:39:49.740Z,9.33
2022-11-16T16:42:18.633Z,8.07
2022-11-16T16:44:47.880Z,8.03
2022-11-16T16:47:16.562Z,9.00
2022-11-16T16:49:44.843Z,8.67
2022-11-16T16:52:14.336Z,8.27
2022-11-16T16:54:42.686Z,7.57
2022-11-16T16:57:14.828Z,7.67
2022-11-16T16:59:45.280Z,7.00
2022-11-16T17:02:13.952Z,7.20
2022-11-16T17:04:43.967Z,7.57
2022-11-16T17:07:13.671Z,7.43
2022-11-16T17:09:41.623Z,8.53
2022-11-16T17:12:10.820Z,7.37
2022-11-16T17:14:38.851Z,7.30
2022-11-16T17:17:06.828Z,7.00
2022-11-16T17:19:34.958Z,8.27
2022-11-16T17:22:03.041Z,6.50
2022-11-16T17:24:32.433Z,6.93
2022-11-16T17:27:00.416Z,6.30
2022-11-16T17:29:28.622Z,7.53
2022-11-16T17:31:56.726Z,6.60
2022-11-16T17:34:24.791Z,7.03
2022-11-16T17:36:53.028Z,7.67
2022-11-16T17:39:21.100Z,6.43
2022-11-16T17:41:51.266Z,6.37
2022-11-16T17:44:21.943Z,7.03
2022-11-16T17:46:51.450Z,8.07
2022-11-16T17:49:19.500Z,7.47
2022-11-16T17:51:47.547Z,7.10
2022-11-16T17:54:15.659Z,7.73
2022-11-16T17:56:44.022Z,7.97
2022-11-16T17:59:13.421Z,6.77
2022-11-16T18:01:41.552Z,8.83
2022-11-16T18:04:09.619Z,7.13
2022-11-16T18:06:37.754Z,7.77
2022-11-16T18:09:05.919Z,6.90
2022-11-16T18:11:33.937Z,6.60
2022-11-16T18:14:05.529Z,6.57
2022-11-16T18:16:35.320Z,6.80
2022-11-16T18:19:05.154Z,6.03
2022-11-16T18:21:34.210Z,6.87
2022-11-16T18:24:02.912Z,7.53
2022-11-16T18:26:30.836Z,6.77
2022-11-16T18:28:58.731Z,7.77
2022-11-16T18:31:27.138Z,6.97
2022-11-16T18:33:56.674Z,6.33
2022-11-16T18:36:24.782Z,7.63
2022-11-16T18:38:52.848Z,6.37
2022-11-16T18:41:22.735Z,5.73
2022-11-16T18:43:52.446Z,6.63
2022-11-16T18:46:21.646Z,7.10
2022-11-16T18:48:49.681Z,6.93
2022-11-16T18:51:20.046Z,6.03
2022-11-16T18:53:48.203Z,6.57
2022-11-16T18:56:16.684Z,6.27
2022-11-16T18:58:53.104Z,7.77
2022-11-16T19:01:23.581Z,6.30
2022-11-16T19:03:52.634Z,6.27
2022-11-16T19:06:23.143Z,5.73
2022-11-16T19:09:01.091Z,7.13
2022-11-16T19:11:29.612Z,6.17
2022-11-16T19:14:00.614Z,6.13
2022-11-16T19:16:28.609Z,5.27
2022-11-16T19:18:56.861Z,5.87
2022-11-16T19:21:26.426Z,6.93
2022-11-16T19:23:56.353Z,6.03
2022-11-16T19:26:26.254Z,6.70
2022-11-16T19:28:55.444Z,6.30
2022-11-16T19:31:25.517Z,6.03
2022-11-16T19:33:58.334Z,6.60
2022-11-16T19:36:29.652Z,6.60
2022-11-16T19:38:57.739Z,6.77
2022-11-16T19:41:27.089Z,5.63
2022-11-16T19:43:59.114Z,7.40
2022-11-16T19:46:28.385Z,6.83
2022-11-16T19:48:57.234Z,5.27
2022-11-16T19:51:28.220Z,6.37
2022-11-16T19:53:56.864Z,5.57
2022-11-16T19:56:25.574Z,6.50
2022-11-16T19:58:53.784Z,6.10
2022-11-16T20:01:23.610Z,6.20
2022-11-16T20:03:51.741Z,6.17
2022-11-16T20:06:22.119Z,6.67
2022-11-16T20:08:53.160Z,5.40
2022-11-16T20:11:22.653Z,5.73
2022-11-16T20:13:52.482Z,5.77
2022-11-16T20:16:23.384Z,6.90
2022-11-16T20:18:52.459Z,6.80
2022-11-16T20:21:23.736Z,7.20
2022-11-16T20:23:54.253Z,7.50
2022-11-16T20:26:22.990Z,6.53
2022-11-16T20:28:52.526Z,6.67
2022-11-16T20:31:22.438Z,8.20
2022-11-16T20:33:55.016Z,6.97
2022-11-16T20:36:24.159Z,6.83
2022-11-16T20:38:53.869Z,6.93
2022-11-16T20:41:23.439Z,6.23
2022-11-16T20:43:52.984Z,7.43
2022-11-16T20:46:22.539Z,6.70
2022-11-16T20:48:51.060Z,7.20
2022-11-16T20:51:20.461Z,7.37
2022-11-16T20:53:49.480Z,6.60
2022-11-16T20:56:20.244Z,6.77
2022-11-16T20:58:48.782Z,8.30
2022-11-16T21:01:18.757Z,7.17
2022-11-16T21:03:47.104Z,6.77
2022-11-16T21:06:16.021Z,7.03
2022-11-16T21:08:44.063Z,6.53
2022-11-16T21:11:12.975Z,6.63
2022-11-16T21:14:00.164Z,6.33
2022-11-16T21:16:28.110Z,6.23
2022-11-16T21:18:56.131Z,6.53
2022-11-16T21:21:25.194Z,6.40
2022-11-16T21:23:54.991Z,5.77
2022-11-16T21:26:24.459Z,6.07
2022-11-16T21:28:54.098Z,6.73
2022-11-16T21:31:25.545Z,6.07
2022-11-16T21:33:54.827Z,6.00
2022-11-16T21:36:24.441Z,6.33
2022-11-16T21:38:52.815Z,6.50
2022-11-16T21:41:22.430Z,5.30
2022-11-16T21:43:50.772Z,6.60
2022-11-16T21:46:22.787Z,5.50
2022-11-16T21:48:50.994Z,6.13
2022-11-16T21:51:20.259Z,6.77
2022-11-16T21:53:48.332Z,4.80
2022-11-16T21:56:17.791Z,5.50
2022-11-16T21:58:46.569Z,5.60
2022-11-16T22:01:16.574Z,5.80
2022-11-16T22:03:46.299Z,5.43
2022-11-16T22:06:33.029Z,6.37
2022-11-16T22:09:01.425Z,6.00
2022-11-16T22:11:29.547Z,6.47
2022-11-16T22:13:57.543Z,6.20
2022-11-16T22:16:25.547Z,6.23
2022-11-16T22:18:54.945Z,6.27
2022-11-16T22:21:23.074Z,6.13
2022-11-16T22:23:51.085Z,6.33
2022-11-16T22:26:19.293Z,5.83
2022-11-16T22:28:47.312Z,6.27
2022-11-16T22:31:16.148Z,5.77
2022-11-16T22:33:44.144Z,5.93
2022-11-16T22:36:13.931Z,6.20
2022-11-16T22:38:41.954Z,6.07
2022-11-16T22:41:10.701Z,4.87
2022-11-16T22:43:39.044Z,5.33
2022-11-16T22:46:07.411Z,5.57
2022-11-16T22:48:37.332Z,5.50
2022-11-16T22:51:07.889Z,4.57
2022-11-16T22:53:37.767Z,4.80
2022-11-16T22:56:07.801Z,4.63
2022-11-16T22:58:36.291Z,5.50
2022-11-16T23:01:04.762Z,4.53
2022-11-16T23:03:33.247Z,5.73
2022-11-16T23:06:01.664Z,4.90
2022-11-16T23:08:29.912Z,4.57
2022-11-16T23:11:21.905Z,7.27
2022-11-16T23:14:08.032Z,6.13
2022-11-16T23:16:36.770Z,5.30
2022-11-16T23:19:25.085Z,5.87
2022-11-16T23:22:10.891Z,4.60
2022-11-16T23:24:56.193Z,4.43
2022-11-16T23:27:32.408Z,4.67
2022-11-16T23:30:04.522Z,5.07
2022-11-16T23:32:36.063Z,5.37
2022-11-16T23:35:04.174Z,5.93
2022-11-16T23:37:32.117Z,6.30
2022-11-16T23:40:00.284Z,5.33
2022-11-16T23:42:46.957Z,4.57
2022-11-16T23:45:15.440Z,4.73
2022-11-16T23:47:43.487Z,5.03
2022-11-16T23:50:11.542Z,4.97
2022-11-16T23:52:39.580Z,4.27
2022-11-16T23:55:08.572Z,5.27
2022-11-16T23:57:38.049Z,5.30
